createdAt,value
2023-02-06T16:11:51.595Z,7.00
2023-02-06T16:14:26.484Z,7.10
2023-02-06T16:17:05.953Z,5.60
2023-02-06T16:19:56.223Z,5.30
2023-02-06T16:22:35.714Z,4.90
2023-02-06T16:25:15.420Z,5.30
2023-02-06T16:27:45.495Z,5.10
2023-02-06T16:30:28.610Z,4.80
2023-02-06T16:32:57.694Z,4.50
2023-02-06T16:35:25.827Z,4.90
2023-02-06T16:37:54.801Z,4.10
2023-02-06T16:40:23.251Z,4.60
2023-02-06T16:42:52.161Z,4.60
2023-02-06T16:45:22.717Z,4.80
2023-02-06T16:47:50.920Z,4.20
2023-02-06T16:50:19.783Z,5.90
2023-02-06T16:52:50.193Z,10.50
2023-02-06T16:55:23.204Z,6.00
2023-02-06T16:57:57.005Z,5.20
2023-02-06T17:00:31.230Z,5.90
2023-02-06T17:02:59.657Z,4.80
2023-02-06T17:05:27.760Z,4.90
2023-02-06T17:07:56.031Z,3.60
2023-02-06T17:10:25.530Z,3.80
2023-02-06T17:12:54.420Z,4.30
2023-02-06T17:15:22.448Z,4.10
2023-02-06T17:17:51.122Z,3.60
2023-02-06T17:20:32.397Z,4.20
2023-02-06T17:23:01.463Z,4.00
2023-02-06T17:25:29.695Z,4.40
2023-02-06T17:27:58.174Z,3.90
2023-02-06T17:30:26.388Z,3.70
2023-02-06T17:32:56.397Z,4.00
2023-02-06T17:35:24.359Z,5.00
2023-02-06T17:37:53.095Z,5.80
2023-02-06T17:40:27.116Z,5.40
2023-02-06T17:42:55.536Z,5.60
2023-02-06T17:45:23.981Z,9.20
2023-02-06T17:47:53.145Z,6.30
2023-02-06T17:50:22.888Z,11.40
2023-02-06T17:52:53.790Z,8.70
2023-02-06T17:55:23.244Z,5.50
2023-02-06T17:57:52.095Z,4.60
2023-02-06T18:00:23.140Z,5.10
2023-02-06T18:02:52.461Z,6.10
2023-02-06T18:05:20.858Z,6.50
2023-02-06T18:07:51.029Z,6.80
2023-02-06T18:10:20.418Z,6.50
2023-02-06T18:12:49.488Z,5.60
2023-02-06T18:15:17.804Z,6.30
2023-02-06T18:17:45.902Z,4.90
2023-02-06T18:20:14.301Z,4.60
2023-02-06T18:22:42.706Z,4.60
2023-02-06T18:25:13.501Z,5.80
2023-02-06T18:27:42.365Z,6.40
2023-02-06T18:30:11.153Z,7.50
2023-02-06T18:32:39.698Z,6.70
2023-02-06T18:35:08.642Z,7.50
2023-02-06T18:37:36.906Z,7.20
2023-02-06T18:40:05.869Z,6.50
2023-02-06T18:42:54.773Z,6.40
2023-02-06T18:45:24.810Z,6.00
2023-02-06T18:47:52.978Z,5.60
2023-02-06T18:50:22.126Z,5.70
2023-02-06T18:52:50.474Z,5.00
2023-02-06T19:01:25.705Z,5.30
2023-02-06T19:03:54.394Z,6.00
2023-02-06T19:06:32.304Z,7.00
2023-02-06T19:09:00.512Z,8.60
2023-02-06T19:11:28.630Z,10.10
2023-02-06T19:13:57.699Z,9.40
2023-02-06T19:16:28.544Z,8.80
2023-02-06T19:18:56.712Z,9.40
2023-02-06T19:21:25.579Z,8.10
2023-02-06T19:23:58.639Z,6.70
2023-02-06T19:26:27.082Z,7.70
2023-02-06T19:28:56.020Z,7.80
2023-02-06T19:31:24.792Z,6.80
2023-02-06T19:33:56.483Z,7.60
2023-02-06T19:36:25.450Z,6.10
2023-02-06T19:38:55.678Z,8.50
2023-02-06T19:41:25.338Z,8.20
2023-02-06T19:43:54.590Z,9.60
2023-02-06T19:46:24.860Z,8.30
2023-02-06T19:48:53.593Z,9.00
2023-02-06T19:51:23.914Z,8.20
2023-02-06T19:53:52.838Z,7.80
2023-02-06T19:56:28.026Z,7.30
2023-02-06T19:58:59.797Z,5.80
2023-02-06T20:01:30.537Z,6.80
2023-02-06T20:04:00.668Z,5.60
2023-02-06T20:06:30.783Z,6.00
2023-02-06T20:08:58.893Z,5.90
2023-02-06T20:11:27.231Z,6.40
2023-02-06T20:13:58.490Z,4.90
2023-02-06T20:16:29.138Z,5.50
2023-02-06T20:18:58.209Z,6.00
2023-02-06T20:21:29.456Z,9.10
2023-02-06T20:24:00.019Z,7.10
2023-02-06T20:46:25.417Z,6.50
2023-02-06T20:49:03.547Z,5.00
2023-02-06T20:51:32.233Z,6.80
2023-02-06T20:54:00.425Z,5.00
2023-02-06T20:56:28.708Z,6.00
2023-02-06T20:58:58.319Z,7.40
2023-02-06T21:01:28.240Z,8.60
2023-02-06T21:04:02.775Z,7.30
2023-02-06T21:06:31.373Z,8.90
2023-02-06T21:09:03.218Z,8.40
2023-02-06T21:11:40.253Z,7.50
2023-02-06T21:14:09.032Z,7.60
2023-02-06T21:16:38.549Z,7.20
2023-02-06T21:19:08.163Z,6.90
2023-02-06T21:21:37.394Z,4.60
2023-02-06T21:24:05.662Z,6.00
2023-02-06T21:26:34.322Z,5.80
2023-02-06T21:29:02.905Z,6.00
2023-02-06T21:31:37.879Z,8.00
2023-02-06T21:34:10.122Z,9.40
2023-02-06T21:36:38.886Z,9.40
2023-02-06T21:39:07.207Z,10.40
2023-02-06T21:41:35.854Z,9.30
2023-02-06T21:44:04.807Z,9.30
2023-02-06T21:46:34.914Z,9.80
2023-02-06T21:49:02.922Z,7.90
2023-02-06T21:51:31.567Z,6.60
2023-02-06T21:53:59.702Z,6.80
2023-02-06T21:56:28.997Z,7.00
2023-02-06T21:58:57.632Z,7.80
2023-02-06T22:01:30.098Z,8.20
2023-02-06T22:03:58.363Z,8.70
2023-02-06T22:06:27.141Z,8.50
2023-02-06T22:08:56.292Z,10.40
2023-02-06T22:11:26.466Z,8.80
2023-02-06T22:13:59.703Z,10.20
2023-02-06T22:16:31.710Z,9.20
2023-02-06T22:19:00.963Z,8.90
2023-02-06T22:21:30.649Z,6.90
2023-02-06T22:24:01.429Z,9.70
2023-02-06T22:26:30.398Z,7.20
2023-02-06T22:28:59.166Z,9.00
2023-02-06T22:31:29.830Z,8.90
2023-02-06T22:33:58.999Z,9.40
2023-02-06T22:36:29.213Z,10.50
2023-02-06T22:39:02.159Z,9.10
2023-02-06T22:41:30.357Z,9.40
2023-02-06T22:43:59.140Z,7.80
2023-02-06T22:46:32.348Z,7.90
2023-02-06T22:49:00.415Z,7.00
2023-02-06T22:51:28.578Z,6.90
2023-02-06T22:53:56.771Z,6.30
2023-02-06T22:56:34.990Z,9.10
2023-02-06T22:59:10.716Z,7.60
2023-02-06T23:01:42.474Z,10.70
2023-02-06T23:04:14.125Z,9.70
2023-02-06T23:06:42.915Z,8.10
2023-02-06T23:09:14.377Z,8.40
2023-02-06T23:11:42.577Z,5.60
2023-02-06T23:14:11.248Z,6.60
2023-02-06T23:16:43.268Z,6.30
2023-02-06T23:19:12.503Z,7.80
2023-02-06T23:21:41.807Z,8.00
2023-02-06T23:24:10.062Z,10.60
2023-02-06T23:26:38.564Z,7.10
2023-02-06T23:29:07.327Z,9.10
2023-02-06T23:31:35.489Z,7.00
2023-02-06T23:34:03.801Z,8.60
2023-02-06T23:36:31.811Z,7.20
2023-02-06T23:39:03.644Z,7.30
2023-02-06T23:41:32.613Z,8.00
2023-02-06T23:44:03.410Z,9.60
2023-02-06T23:46:33.197Z,8.90
2023-02-06T23:49:01.423Z,9.90
2023-02-06T23:51:29.732Z,9.60
2023-02-06T23:53:57.683Z,8.50
2023-02-06T23:56:28.694Z,7.60
2023-02-06T23:58:57.367Z,7.10
